sensor_id;sensor_type;location;lat;lon;timestamp;P1;durP1;ratioP1;P2;durP2;ratioP2
19519;SDS011;9904;52.246;20.898;2024-01-11T00:00:35;156.87;;;43.87;;
19519;SDS011;9904;52.246;20.898;2024-01-11T00:03:02;161.10;;;45.70;;
19519;SDS011;9904;52.246;20.898;2024-01-11T00:05:29;159.67;;;46.77;;
19519;SDS011;9904;52.246;20.898;2024-01-11T00:07:56;160.73;;;46.23;;
19519;SDS011;9904;52.246;20.898;2024-01-11T00:10:22;143.33;;;42.27;;
19519;SDS011;9904;52.246;20.898;2024-01-11T00:12:49;166.30;;;45.63;;
19519;SDS011;9904;52.246;20.898;2024-01-11T00:15:15;151.37;;;39.27;;
19519;SDS011;9904;52.246;20.898;2024-01-11T00:17:42;146.30;;;41.97;;
19519;SDS011;9904;52.246;20.898;2024-01-11T00:20:09;150.60;;;39.43;;
19519;SDS011;9904;52.246;20.898;2024-01-11T00:22:37;114.57;;;33.57;;
19519;SDS011;9904;52.246;20.898;2024-01-11T00:25:04;135.00;;;39.73;;
19519;SDS011;9904;52.246;20.898;2024-01-11T00:27:31;143.03;;;36.50;;
19519;SDS011;9904;52.246;20.898;2024-01-11T00:29:57;148.37;;;42.90;;
19519;SDS011;9904;52.246;20.898;2024-01-11T00:32:24;154.83;;;41.93;;
19519;SDS011;9904;52.246;20.898;2024-01-11T00:34:50;142.13;;;39.00;;
19519;SDS011;9904;52.246;20.898;2024-01-11T00:37:17;114.13;;;36.33;;
19519;SDS011;9904;52.246;20.898;2024-01-11T00:39:44;142.77;;;38.87;;
19519;SDS011;9904;52.246;20.898;2024-01-11T00:42:10;128.60;;;37.93;;
19519;SDS011;9904;52.246;20.898;2024-01-11T00:44:37;153.13;;;43.63;;
19519;SDS011;9904;52.246;20.898;2024-01-11T00:47:03;124.93;;;36.30;;
19519;SDS011;9904;52.246;20.898;2024-01-11T00:49:30;127.07;;;38.57;;
19519;SDS011;9904;52.246;20.898;2024-01-11T00:51:57;142.63;;;42.47;;
19519;SDS011;9904;52.246;20.898;2024-01-11T00:54:23;135.63;;;36.80;;
19519;SDS011;9904;52.246;20.898;2024-01-11T00:56:51;124.60;;;36.70;;
19519;SDS011;9904;52.246;20.898;2024-01-11T00:59:17;126.90;;;35.37;;
19519;SDS011;9904;52.246;20.898;2024-01-11T01:01:47;137.13;;;39.80;;
19519;SDS011;9904;52.246;20.898;2024-01-11T01:04:15;127.17;;;33.67;;
19519;SDS011;9904;52.246;20.898;2024-01-11T01:06:41;127.03;;;34.63;;
19519;SDS011;9904;52.246;20.898;2024-01-11T01:09:08;124.50;;;33.37;;
19519;SDS011;9904;52.246;20.898;2024-01-11T01:11:35;98.80;;;29.70;;
19519;SDS011;9904;52.246;20.898;2024-01-11T01:14:02;111.33;;;31.23;;
19519;SDS011;9904;52.246;20.898;2024-01-11T01:16:29;117.77;;;31.87;;
19519;SDS011;9904;52.246;20.898;2024-01-11T01:18:55;122.57;;;32.27;;
19519;SDS011;9904;52.246;20.898;2024-01-11T01:21:22;113.90;;;29.53;;
19519;SDS011;9904;52.246;20.898;2024-01-11T01:23:48;116.30;;;33.57;;
19519;SDS011;9904;52.246;20.898;2024-01-11T01:26:15;119.63;;;33.83;;
19519;SDS011;9904;52.246;20.898;2024-01-11T01:28:41;95.80;;;26.80;;
19519;SDS011;9904;52.246;20.898;2024-01-11T01:31:09;91.10;;;25.37;;
19519;SDS011;9904;52.246;20.898;2024-01-11T01:33:36;89.13;;;24.90;;
19519;SDS011;9904;52.246;20.898;2024-01-11T01:36:02;105.23;;;28.13;;
19519;SDS011;9904;52.246;20.898;2024-01-11T01:38:30;100.33;;;31.37;;
19519;SDS011;9904;52.246;20.898;2024-01-11T01:40:57;99.20;;;26.73;;
19519;SDS011;9904;52.246;20.898;2024-01-11T01:43:23;96.33;;;26.73;;
19519;SDS011;9904;52.246;20.898;2024-01-11T01:45:50;90.63;;;27.87;;
19519;SDS011;9904;52.246;20.898;2024-01-11T01:48:17;86.43;;;27.50;;
19519;SDS011;9904;52.246;20.898;2024-01-11T01:50:44;103.67;;;31.70;;
19519;SDS011;9904;52.246;20.898;2024-01-11T01:53:18;108.30;;;32.03;;
19519;SDS011;9904;52.246;20.898;2024-01-11T01:55:46;99.40;;;27.67;;
19519;SDS011;9904;52.246;20.898;2024-01-11T01:58:14;90.40;;;24.87;;
19519;SDS011;9904;52.246;20.898;2024-01-11T02:00:43;91.07;;;27.20;;
19519;SDS011;9904;52.246;20.898;2024-01-11T02:03:12;84.80;;;25.07;;
19519;SDS011;9904;52.246;20.898;2024-01-11T02:05:41;87.63;;;23.93;;
19519;SDS011;9904;52.246;20.898;2024-01-11T02:08:08;90.00;;;27.00;;
19519;SDS011;9904;52.246;20.898;2024-01-11T02:10:41;95.97;;;26.37;;
19519;SDS011;9904;52.246;20.898;2024-01-11T02:13:09;88.77;;;24.13;;
19519;SDS011;9904;52.246;20.898;2024-01-11T02:15:36;68.27;;;19.67;;
19519;SDS011;9904;52.246;20.898;2024-01-11T02:18:03;94.43;;;25.90;;
19519;SDS011;9904;52.246;20.898;2024-01-11T02:20:29;90.40;;;25.50;;
19519;SDS011;9904;52.246;20.898;2024-01-11T02:22:58;97.60;;;26.23;;
19519;SDS011;9904;52.246;20.898;2024-01-11T02:25:30;88.43;;;25.27;;
19519;SDS011;9904;52.246;20.898;2024-01-11T02:27:57;78.83;;;25.40;;
19519;SDS011;9904;52.246;20.898;2024-01-11T02:30:23;68.23;;;20.20;;
19519;SDS011;9904;52.246;20.898;2024-01-11T02:32:50;83.20;;;21.73;;
19519;SDS011;9904;52.246;20.898;2024-01-11T02:35:17;93.27;;;24.67;;
19519;SDS011;9904;52.246;20.898;2024-01-11T02:37:45;84.97;;;23.70;;
19519;SDS011;9904;52.246;20.898;2024-01-11T02:40:13;87.47;;;25.43;;
19519;SDS011;9904;52.246;20.898;2024-01-11T02:42:40;92.73;;;26.07;;
19519;SDS011;9904;52.246;20.898;2024-01-11T02:45:07;109.90;;;26.90;;
19519;SDS011;9904;52.246;20.898;2024-01-11T02:47:34;101.53;;;25.10;;
19519;SDS011;9904;52.246;20.898;2024-01-11T02:50:00;110.93;;;27.00;;
19519;SDS011;9904;52.246;20.898;2024-01-11T02:52:27;104.33;;;27.70;;
19519;SDS011;9904;52.246;20.898;2024-01-11T02:54:54;98.50;;;26.20;;
19519;SDS011;9904;52.246;20.898;2024-01-11T02:57:21;101.83;;;24.97;;
19519;SDS011;9904;52.246;20.898;2024-01-11T02:59:49;106.30;;;27.70;;
19519;SDS011;9904;52.246;20.898;2024-01-11T03:02:16;73.20;;;20.13;;
19519;SDS011;9904;52.246;20.898;2024-01-11T03:04:42;112.10;;;26.50;;
19519;SDS011;9904;52.246;20.898;2024-01-11T03:07:09;91.03;;;25.80;;
19519;SDS011;9904;52.246;20.898;2024-01-11T03:09:36;112.53;;;26.37;;
19519;SDS011;9904;52.246;20.898;2024-01-11T03:12:02;123.27;;;31.87;;
19519;SDS011;9904;52.246;20.898;2024-01-11T03:14:29;106.57;;;27.40;;
19519;SDS011;9904;52.246;20.898;2024-01-11T03:16:56;116.10;;;26.33;;
19519;SDS011;9904;52.246;20.898;2024-01-11T03:19:22;122.30;;;33.60;;
19519;SDS011;9904;52.246;20.898;2024-01-11T03:21:49;113.57;;;27.67;;
19519;SDS011;9904;52.246;20.898;2024-01-11T03:24:16;107.23;;;27.40;;
19519;SDS011;9904;52.246;20.898;2024-01-11T03:26:42;114.50;;;29.77;;
19519;SDS011;9904;52.246;20.898;2024-01-11T03:29:09;115.27;;;27.83;;
19519;SDS011;9904;52.246;20.898;2024-01-11T03:31:36;131.67;;;31.13;;
19519;SDS011;9904;52.246;20.898;2024-01-11T03:34:04;113.00;;;31.87;;
19519;SDS011;9904;52.246;20.898;2024-01-11T03:36:30;120.07;;;31.87;;
19519;SDS011;9904;52.246;20.898;2024-01-11T03:38:57;135.43;;;30.23;;
19519;SDS011;9904;52.246;20.898;2024-01-11T03:41:24;135.40;;;32.03;;
19519;SDS011;9904;52.246;20.898;2024-01-11T03:43:50;122.90;;;32.73;;
19519;SDS011;9904;52.246;20.898;2024-01-11T03:46:17;137.30;;;37.03;;
19519;SDS011;9904;52.246;20.898;2024-01-11T03:48:43;114.97;;;30.00;;
19519;SDS011;9904;52.246;20.898;2024-01-11T03:51:10;115.97;;;31.97;;
19519;SDS011;9904;52.246;20.898;2024-01-11T03:53:37;134.93;;;37.33;;
19519;SDS011;9904;52.246;20.898;2024-01-11T03:56:04;124.07;;;33.40;;
19519;SDS011;9904;52.246;20.898;2024-01-11T03:58:31;118.67;;;33.27;;
19519;SDS011;9904;52.246;20.898;2024-01-11T04:00:58;140.20;;;36.27;;
19519;SDS011;9904;52.246;20.898;2024-01-11T04:03:26;128.37;;;34.53;;
19519;SDS011;9904;52.246;20.898;2024-01-11T04:05:52;145.07;;;38.07;;
19519;SDS011;9904;52.246;20.898;2024-01-11T04:08:20;133.47;;;35.53;;
19519;SDS011;9904;52.246;20.898;2024-01-11T04:10:46;129.70;;;32.70;;
19519;SDS011;9904;52.246;20.898;2024-01-11T04:13:13;144.63;;;31.77;;
19519;SDS011;9904;52.246;20.898;2024-01-11T04:15:39;151.57;;;35.37;;
19519;SDS011;9904;52.246;20.898;2024-01-11T04:18:06;144.63;;;37.60;;
19519;SDS011;9904;52.246;20.898;2024-01-11T04:20:33;140.67;;;37.27;;
19519;SDS011;9904;52.246;20.898;2024-01-11T04:23:00;122.23;;;32.10;;
19519;SDS011;9904;52.246;20.898;2024-01-11T04:25:27;160.20;;;39.27;;
19519;SDS011;9904;52.246;20.898;2024-01-11T04:27:53;143.30;;;33.77;;
19519;SDS011;9904;52.246;20.898;2024-01-11T04:30:20;136.30;;;34.43;;
19519;SDS011;9904;52.246;20.898;2024-01-11T04:32:46;138.53;;;32.53;;
19519;SDS011;9904;52.246;20.898;2024-01-11T04:35:13;142.40;;;33.13;;
19519;SDS011;9904;52.246;20.898;2024-01-11T04:37:40;162.03;;;37.03;;
19519;SDS011;9904;52.246;20.898;2024-01-11T04:40:07;165.40;;;41.80;;
19519;SDS011;9904;52.246;20.898;2024-01-11T04:42:34;153.57;;;36.27;;
19519;SDS011;9904;52.246;20.898;2024-01-11T04:45:00;146.60;;;35.47;;
19519;SDS011;9904;52.246;20.898;2024-01-11T04:47:27;169.77;;;39.37;;
19519;SDS011;9904;52.246;20.898;2024-01-11T04:49:53;166.70;;;39.57;;
19519;SDS011;9904;52.246;20.898;2024-01-11T04:52:21;149.33;;;37.43;;
19519;SDS011;9904;52.246;20.898;2024-01-11T04:54:48;155.57;;;39.43;;
19519;SDS011;9904;52.246;20.898;2024-01-11T04:57:14;168.30;;;36.43;;
19519;SDS011;9904;52.246;20.898;2024-01-11T04:59:41;160.60;;;32.93;;
19519;SDS011;9904;52.246;20.898;2024-01-11T05:02:07;129.30;;;31.90;;
19519;SDS011;9904;52.246;20.898;2024-01-11T05:04:35;149.93;;;34.47;;
19519;SDS011;9904;52.246;20.898;2024-01-11T05:07:01;135.47;;;33.83;;
19519;SDS011;9904;52.246;20.898;2024-01-11T05:09:28;139.60;;;35.33;;
19519;SDS011;9904;52.246;20.898;2024-01-11T05:11:54;163.90;;;36.77;;
19519;SDS011;9904;52.246;20.898;2024-01-11T05:14:21;145.30;;;31.70;;
19519;SDS011;9904;52.246;20.898;2024-01-11T05:16:47;158.47;;;37.27;;
19519;SDS011;9904;52.246;20.898;2024-01-11T05:19:14;136.17;;;29.50;;
19519;SDS011;9904;52.246;20.898;2024-01-11T05:21:41;144.23;;;34.97;;
19519;SDS011;9904;52.246;20.898;2024-01-11T05:24:07;133.80;;;30.90;;
19519;SDS011;9904;52.246;20.898;2024-01-11T05:26:37;150.40;;;36.50;;
19519;SDS011;9904;52.246;20.898;2024-01-11T05:29:03;127.80;;;34.77;;
19519;SDS011;9904;52.246;20.898;2024-01-11T05:31:33;115.60;;;27.63;;
19519;SDS011;9904;52.246;20.898;2024-01-11T05:33:59;115.47;;;29.17;;
19519;SDS011;9904;52.246;20.898;2024-01-11T05:36:26;113.77;;;29.23;;
19519;SDS011;9904;52.246;20.898;2024-01-11T05:38:53;117.67;;;28.57;;
19519;SDS011;9904;52.246;20.898;2024-01-11T05:41:19;111.10;;;27.23;;
19519;SDS011;9904;52.246;20.898;2024-01-11T05:43:46;106.43;;;26.13;;
19519;SDS011;9904;52.246;20.898;2024-01-11T05:46:13;107.00;;;26.77;;
19519;SDS011;9904;52.246;20.898;2024-01-11T05:48:39;115.03;;;30.03;;
19519;SDS011;9904;52.246;20.898;2024-01-11T05:51:07;106.90;;;27.43;;
19519;SDS011;9904;52.246;20.898;2024-01-11T05:53:34;112.40;;;29.23;;
19519;SDS011;9904;52.246;20.898;2024-01-11T05:56:06;115.80;;;27.13;;
19519;SDS011;9904;52.246;20.898;2024-01-11T05:58:34;96.60;;;23.87;;
19519;SDS011;9904;52.246;20.898;2024-01-11T06:01:03;108.30;;;26.73;;
19519;SDS011;9904;52.246;20.898;2024-01-11T06:03:30;115.73;;;28.50;;
19519;SDS011;9904;52.246;20.898;2024-01-11T06:06:00;118.07;;;30.43;;
19519;SDS011;9904;52.246;20.898;2024-01-11T06:08:29;116.23;;;29.47;;
19519;SDS011;9904;52.246;20.898;2024-01-11T06:10:57;89.00;;;25.53;;
19519;SDS011;9904;52.246;20.898;2024-01-11T06:13:24;123.13;;;28.13;;
19519;SDS011;9904;52.246;20.898;2024-01-11T06:15:50;105.97;;;29.23;;
19519;SDS011;9904;52.246;20.898;2024-01-11T06:18:17;98.87;;;25.93;;
19519;SDS011;9904;52.246;20.898;2024-01-11T06:20:43;92.47;;;24.43;;
19519;SDS011;9904;52.246;20.898;2024-01-11T06:23:10;90.80;;;24.83;;
19519;SDS011;9904;52.246;20.898;2024-01-11T06:25:37;90.70;;;23.80;;
19519;SDS011;9904;52.246;20.898;2024-01-11T06:28:03;92.03;;;22.73;;
19519;SDS011;9904;52.246;20.898;2024-01-11T06:30:30;102.90;;;24.73;;
19519;SDS011;9904;52.246;20.898;2024-01-11T06:32:57;87.60;;;25.17;;
19519;SDS011;9904;52.246;20.898;2024-01-11T06:35:23;87.63;;;21.47;;
19519;SDS011;9904;52.246;20.898;2024-01-11T06:37:50;80.17;;;21.90;;
19519;SDS011;9904;52.246;20.898;2024-01-11T06:40:17;76.90;;;23.77;;
19519;SDS011;9904;52.246;20.898;2024-01-11T06:42:45;85.13;;;22.87;;
19519;SDS011;9904;52.246;20.898;2024-01-11T06:45:12;77.50;;;22.10;;
19519;SDS011;9904;52.246;20.898;2024-01-11T06:47:39;82.40;;;25.83;;
19519;SDS011;9904;52.246;20.898;2024-01-11T06:50:06;73.17;;;19.30;;
19519;SDS011;9904;52.246;20.898;2024-01-11T06:52:34;68.43;;;17.87;;
19519;SDS011;9904;52.246;20.898;2024-01-11T06:55:01;66.97;;;20.00;;
19519;SDS011;9904;52.246;20.898;2024-01-11T06:57:28;79.80;;;21.77;;
19519;SDS011;9904;52.246;20.898;2024-01-11T06:59:55;67.87;;;19.23;;
19519;SDS011;9904;52.246;20.898;2024-01-11T07:02:22;95.37;;;21.90;;
19519;SDS011;9904;52.246;20.898;2024-01-11T07:04:49;111.50;;;24.70;;
19519;SDS011;9904;52.246;20.898;2024-01-11T07:07:15;88.20;;;22.10;;
19519;SDS011;9904;52.246;20.898;2024-01-11T07:09:42;88.40;;;19.50;;
19519;SDS011;9904;52.246;20.898;2024-01-11T07:12:08;85.20;;;19.80;;
19519;SDS011;9904;52.246;20.898;2024-01-11T07:14:35;96.37;;;21.73;;
19519;SDS011;9904;52.246;20.898;2024-01-11T07:17:02;94.03;;;20.70;;
19519;SDS011;9904;52.246;20.898;2024-01-11T07:19:30;97.00;;;22.40;;
19519;SDS011;9904;52.246;20.898;2024-01-11T07:21:57;97.13;;;21.20;;
19519;SDS011;9904;52.246;20.898;2024-01-11T07:24:24;96.77;;;24.60;;
19519;SDS011;9904;52.246;20.898;2024-01-11T07:26:51;96.80;;;23.03;;
19519;SDS011;9904;52.246;20.898;2024-01-11T07:29:18;96.90;;;23.47;;
19519;SDS011;9904;52.246;20.898;2024-01-11T07:31:44;91.47;;;20.90;;
19519;SDS011;9904;52.246;20.898;2024-01-11T07:34:11;121.70;;;25.20;;
19519;SDS011;9904;52.246;20.898;2024-01-11T07:36:38;89.10;;;20.93;;
19519;SDS011;9904;52.246;20.898;2024-01-11T07:39:04;108.80;;;26.10;;
19519;SDS011;9904;52.246;20.898;2024-01-11T07:41:32;108.87;;;24.97;;
19519;SDS011;9904;52.246;20.898;2024-01-11T07:43:59;126.60;;;28.13;;
19519;SDS011;9904;52.246;20.898;2024-01-11T07:46:26;84.23;;;22.53;;
19519;SDS011;9904;52.246;20.898;2024-01-11T07:49:04;115.00;;;25.77;;
19519;SDS011;9904;52.246;20.898;2024-01-11T07:51:32;108.93;;;23.33;;
19519;SDS011;9904;52.246;20.898;2024-01-11T07:53:59;111.93;;;24.10;;
19519;SDS011;9904;52.246;20.898;2024-01-11T07:56:25;131.13;;;25.37;;
19519;SDS011;9904;52.246;20.898;2024-01-11T07:58:52;127.43;;;27.73;;
19519;SDS011;9904;52.246;20.898;2024-01-11T08:01:20;113.77;;;24.90;;
19519;SDS011;9904;52.246;20.898;2024-01-11T08:03:46;130.77;;;26.80;;
19519;SDS011;9904;52.246;20.898;2024-01-11T08:06:14;125.93;;;26.57;;
19519;SDS011;9904;52.246;20.898;2024-01-11T08:08:41;127.73;;;25.73;;
19519;SDS011;9904;52.246;20.898;2024-01-11T08:11:08;110.30;;;24.60;;
19519;SDS011;9904;52.246;20.898;2024-01-11T08:13:35;104.23;;;23.03;;
19519;SDS011;9904;52.246;20.898;2024-01-11T08:16:04;113.13;;;21.90;;
19519;SDS011;9904;52.246;20.898;2024-01-11T08:18:33;124.50;;;24.57;;
19519;SDS011;9904;52.246;20.898;2024-01-11T08:21:00;127.50;;;23.90;;
19519;SDS011;9904;52.246;20.898;2024-01-11T08:23:27;117.40;;;24.73;;
19519;SDS011;9904;52.246;20.898;2024-01-11T08:25:54;100.43;;;25.07;;
19519;SDS011;9904;52.246;20.898;2024-01-11T08:28:21;114.37;;;23.93;;
19519;SDS011;9904;52.246;20.898;2024-01-11T08:30:48;83.90;;;18.80;;
19519;SDS011;9904;52.246;20.898;2024-01-11T08:33:15;117.73;;;24.80;;
19519;SDS011;9904;52.246;20.898;2024-01-11T08:35:42;108.13;;;24.47;;
19519;SDS011;9904;52.246;20.898;2024-01-11T08:38:08;127.73;;;28.63;;
19519;SDS011;9904;52.246;20.898;2024-01-11T08:40:35;113.47;;;24.03;;
19519;SDS011;9904;52.246;20.898;2024-01-11T08:43:02;124.17;;;24.27;;
19519;SDS011;9904;52.246;20.898;2024-01-11T08:45:30;142.67;;;27.93;;
19519;SDS011;9904;52.246;20.898;2024-01-11T08:47:57;141.83;;;27.10;;
19519;SDS011;9904;52.246;20.898;2024-01-11T08:50:24;144.67;;;29.93;;
19519;SDS011;9904;52.246;20.898;2024-01-11T08:52:54;127.43;;;27.00;;
19519;SDS011;9904;52.246;20.898;2024-01-11T08:55:22;134.30;;;25.80;;
19519;SDS011;9904;52.246;20.898;2024-01-11T08:57:49;142.80;;;27.97;;
19519;SDS011;9904;52.246;20.898;2024-01-11T09:00:16;149.97;;;29.90;;
19519;SDS011;9904;52.246;20.898;2024-01-11T09:02:46;125.93;;;26.17;;
19519;SDS011;9904;52.246;20.898;2024-01-11T09:05:16;127.80;;;25.40;;
19519;SDS011;9904;52.246;20.898;2024-01-11T09:07:43;126.20;;;26.63;;
19519;SDS011;9904;52.246;20.898;2024-01-11T09:10:10;89.10;;;21.23;;
19519;SDS011;9904;52.246;20.898;2024-01-11T09:12:39;101.67;;;22.40;;
19519;SDS011;9904;52.246;20.898;2024-01-11T09:15:06;110.93;;;22.77;;
19519;SDS011;9904;52.246;20.898;2024-01-11T09:17:33;120.80;;;27.23;;
19519;SDS011;9904;52.246;20.898;2024-01-11T09:20:00;111.03;;;21.10;;
19519;SDS011;9904;52.246;20.898;2024-01-11T09:22:27;123.17;;;24.97;;
19519;SDS011;9904;52.246;20.898;2024-01-11T09:24:54;91.47;;;21.27;;
19519;SDS011;9904;52.246;20.898;2024-01-11T09:27:21;106.07;;;22.20;;
19519;SDS011;9904;52.246;20.898;2024-01-11T09:29:48;110.67;;;23.03;;
19519;SDS011;9904;52.246;20.898;2024-01-11T09:32:20;80.40;;;19.40;;
19519;SDS011;9904;52.246;20.898;2024-01-11T09:34:47;102.77;;;21.43;;
19519;SDS011;9904;52.246;20.898;2024-01-11T09:37:13;94.40;;;20.03;;
19519;SDS011;9904;52.246;20.898;2024-01-11T09:39:40;86.67;;;20.20;;
19519;SDS011;9904;52.246;20.898;2024-01-11T09:42:07;93.23;;;21.43;;
19519;SDS011;9904;52.246;20.898;2024-01-11T09:44:38;93.47;;;19.87;;
19519;SDS011;9904;52.246;20.898;2024-01-11T09:47:08;85.33;;;20.37;;
19519;SDS011;9904;52.246;20.898;2024-01-11T09:49:42;88.37;;;21.47;;
19519;SDS011;9904;52.246;20.898;2024-01-11T09:52:11;106.77;;;23.27;;
19519;SDS011;9904;52.246;20.898;2024-01-11T09:54:39;95.70;;;24.50;;
19519;SDS011;9904;52.246;20.898;2024-01-11T09:57:09;88.63;;;21.73;;
19519;SDS011;9904;52.246;20.898;2024-01-11T09:59:36;88.27;;;21.87;;
19519;SDS011;9904;52.246;20.898;2024-01-11T10:02:03;84.37;;;21.43;;
19519;SDS011;9904;52.246;20.898;2024-01-11T10:04:32;84.27;;;20.77;;
19519;SDS011;9904;52.246;20.898;2024-01-11T10:06:58;92.97;;;21.00;;
19519;SDS011;9904;52.246;20.898;2024-01-11T10:09:28;93.83;;;20.50;;
19519;SDS011;9904;52.246;20.898;2024-01-11T10:11:55;94.13;;;21.47;;
19519;SDS011;9904;52.246;20.898;2024-01-11T10:14:22;77.10;;;18.60;;
19519;SDS011;9904;52.246;20.898;2024-01-11T10:16:48;91.00;;;20.50;;
19519;SDS011;9904;52.246;20.898;2024-01-11T10:19:15;90.67;;;21.67;;
19519;SDS011;9904;52.246;20.898;2024-01-11T10:21:43;83.63;;;21.13;;
19519;SDS011;9904;52.246;20.898;2024-01-11T10:24:10;94.43;;;22.10;;
19519;SDS011;9904;52.246;20.898;2024-01-11T10:26:43;79.27;;;21.30;;
19519;SDS011;9904;52.246;20.898;2024-01-11T10:29:09;99.93;;;24.07;;
19519;SDS011;9904;52.246;20.898;2024-01-11T10:31:39;88.63;;;21.20;;
19519;SDS011;9904;52.246;20.898;2024-01-11T10:34:06;93.47;;;22.93;;
19519;SDS011;9904;52.246;20.898;2024-01-11T10:36:33;99.13;;;25.67;;
19519;SDS011;9904;52.246;20.898;2024-01-11T10:39:01;91.60;;;22.73;;
19519;SDS011;9904;52.246;20.898;2024-01-11T10:41:32;109.63;;;24.73;;
19519;SDS011;9904;52.246;20.898;2024-01-11T10:44:05;99.07;;;26.10;;
19519;SDS011;9904;52.246;20.898;2024-01-11T10:46:43;99.47;;;24.23;;
19519;SDS011;9904;52.246;20.898;2024-01-11T10:49:11;86.27;;;22.50;;
19519;SDS011;9904;52.246;20.898;2024-01-11T10:51:47;118.00;;;25.13;;
19519;SDS011;9904;52.246;20.898;2024-01-11T10:54:21;97.27;;;21.63;;
19519;SDS011;9904;52.246;20.898;2024-01-11T10:56:49;92.43;;;23.17;;
19519;SDS011;9904;52.246;20.898;2024-01-11T10:59:17;104.53;;;26.73;;
19519;SDS011;9904;52.246;20.898;2024-01-11T11:01:44;115.70;;;26.97;;
19519;SDS011;9904;52.246;20.898;2024-01-11T11:04:12;107.87;;;24.87;;
19519;SDS011;9904;52.246;20.898;2024-01-11T11:06:40;92.23;;;25.10;;
19519;SDS011;9904;52.246;20.898;2024-01-11T11:09:09;112.80;;;24.23;;
19519;SDS011;9904;52.246;20.898;2024-01-11T11:11:38;117.10;;;25.63;;
19519;SDS011;9904;52.246;20.898;2024-01-11T11:14:06;119.03;;;27.80;;
19519;SDS011;9904;52.246;20.898;2024-01-11T11:16:33;123.77;;;28.07;;
19519;SDS011;9904;52.246;20.898;2024-01-11T11:19:00;114.50;;;24.87;;
19519;SDS011;9904;52.246;20.898;2024-01-11T11:21:27;119.40;;;25.77;;
19519;SDS011;9904;52.246;20.898;2024-01-11T11:23:55;140.50;;;26.67;;
19519;SDS011;9904;52.246;20.898;2024-01-11T11:26:23;146.37;;;30.17;;
19519;SDS011;9904;52.246;20.898;2024-01-11T11:28:52;144.57;;;28.10;;
19519;SDS011;9904;52.246;20.898;2024-01-11T11:34:05;159.67;;;31.77;;
19519;SDS011;9904;52.246;20.898;2024-01-11T11:36:33;126.27;;;25.80;;
19519;SDS011;9904;52.246;20.898;2024-01-11T11:39:01;144.73;;;24.67;;
19519;SDS011;9904;52.246;20.898;2024-01-11T11:41:31;147.37;;;28.37;;
19519;SDS011;9904;52.246;20.898;2024-01-11T11:44:01;208.67;;;35.60;;
19519;SDS011;9904;52.246;20.898;2024-01-11T11:46:29;166.33;;;29.63;;
19519;SDS011;9904;52.246;20.898;2024-01-11T11:48:57;156.70;;;30.23;;
19519;SDS011;9904;52.246;20.898;2024-01-11T11:51:24;139.57;;;24.17;;
19519;SDS011;9904;52.246;20.898;2024-01-11T11:53:55;108.97;;;22.33;;
19519;SDS011;9904;52.246;20.898;2024-01-11T11:56:23;115.60;;;24.73;;
19519;SDS011;9904;52.246;20.898;2024-01-11T11:58:51;135.30;;;23.60;;
19519;SDS011;9904;52.246;20.898;2024-01-11T12:01:22;131.53;;;25.67;;
19519;SDS011;9904;52.246;20.898;2024-01-11T12:03:48;119.60;;;22.30;;
19519;SDS011;9904;52.246;20.898;2024-01-11T12:06:16;168.57;;;29.50;;
19519;SDS011;9904;52.246;20.898;2024-01-11T12:08:45;134.23;;;24.07;;
19519;SDS011;9904;52.246;20.898;2024-01-11T12:11:14;112.97;;;24.17;;
19519;SDS011;9904;52.246;20.898;2024-01-11T12:13:43;138.07;;;27.37;;
19519;SDS011;9904;52.246;20.898;2024-01-11T12:16:11;118.27;;;24.87;;
19519;SDS011;9904;52.246;20.898;2024-01-11T12:18:38;111.33;;;22.00;;
19519;SDS011;9904;52.246;20.898;2024-01-11T12:21:06;85.53;;;21.33;;
19519;SDS011;9904;52.246;20.898;2024-01-11T12:23:34;15.63;;;4.23;;
19519;SDS011;9904;52.246;20.898;2024-01-11T12:26:03;59.57;;;10.77;;
19519;SDS011;9904;52.246;20.898;2024-01-11T12:28:34;72.43;;;14.23;;
19519;SDS011;9904;52.246;20.898;2024-01-11T12:31:00;19.73;;;5.30;;
19519;SDS011;9904;52.246;20.898;2024-01-11T12:33:27;64.90;;;14.07;;
19519;SDS011;9904;52.246;20.898;2024-01-11T12:35:55;77.83;;;18.63;;
19519;SDS011;9904;52.246;20.898;2024-01-11T12:38:22;45.47;;;10.07;;
19519;SDS011;9904;52.246;20.898;2024-01-11T12:40:48;26.87;;;8.37;;
19519;SDS011;9904;52.246;20.898;2024-01-11T12:43:15;8.50;;;2.50;;
19519;SDS011;9904;52.246;20.898;2024-01-11T12:45:42;18.37;;;4.33;;
19519;SDS011;9904;52.246;20.898;2024-01-11T12:48:09;30.20;;;9.30;;
19519;SDS011;9904;52.246;20.898;2024-01-11T12:50:36;69.23;;;13.57;;
19519;SDS011;9904;52.246;20.898;2024-01-11T12:53:15;1.60;;;0.87;;
19519;SDS011;9904;52.246;20.898;2024-01-11T12:55:48;58.57;;;14.37;;
19519;SDS011;9904;52.246;20.898;2024-01-11T12:58:30;10.97;;;4.13;;
19519;SDS011;9904;52.246;20.898;2024-01-11T13:00:56;22.93;;;7.37;;
19519;SDS011;9904;52.246;20.898;2024-01-11T13:03:24;47.97;;;13.47;;
19519;SDS011;9904;52.246;20.898;2024-01-11T13:05:54;22.90;;;4.93;;
19519;SDS011;9904;52.246;20.898;2024-01-11T13:08:22;41.37;;;10.67;;
19519;SDS011;9904;52.246;20.898;2024-01-11T13:10:50;26.07;;;8.60;;
19519;SDS011;9904;52.246;20.898;2024-01-11T13:13:16;69.27;;;13.30;;
19519;SDS011;9904;52.246;20.898;2024-01-11T13:15:44;45.13;;;14.47;;
19519;SDS011;9904;52.246;20.898;2024-01-11T13:18:11;15.27;;;5.13;;
19519;SDS011;9904;52.246;20.898;2024-01-11T13:20:38;89.87;;;19.67;;
19519;SDS011;9904;52.246;20.898;2024-01-11T13:23:14;42.83;;;10.37;;
19519;SDS011;9904;52.246;20.898;2024-01-11T13:25:43;12.13;;;4.97;;
19519;SDS011;9904;52.246;20.898;2024-01-11T13:28:11;7.43;;;3.43;;
19519;SDS011;9904;52.246;20.898;2024-01-11T13:30:39;43.43;;;10.43;;
19519;SDS011;9904;52.246;20.898;2024-01-11T13:33:06;27.63;;;7.90;;
19519;SDS011;9904;52.246;20.898;2024-01-11T13:35:34;9.50;;;6.10;;
19519;SDS011;9904;52.246;20.898;2024-01-11T13:38:02;59.63;;;14.67;;
19519;SDS011;9904;52.246;20.898;2024-01-11T13:40:29;58.87;;;10.70;;
19519;SDS011;9904;52.246;20.898;2024-01-11T13:42:59;40.40;;;12.17;;
19519;SDS011;9904;52.246;20.898;2024-01-11T13:45:26;35.40;;;8.57;;
19519;SDS011;9904;52.246;20.898;2024-01-11T13:47:53;72.03;;;17.03;;
19519;SDS011;9904;52.246;20.898;2024-01-11T13:50:23;37.07;;;9.03;;
19519;SDS011;9904;52.246;20.898;2024-01-11T13:52:51;33.40;;;8.27;;
19519;SDS011;9904;52.246;20.898;2024-01-11T13:55:19;51.07;;;11.77;;
19519;SDS011;9904;52.246;20.898;2024-01-11T13:57:49;77.00;;;15.57;;
19519;SDS011;9904;52.246;20.898;2024-01-11T14:00:17;51.80;;;11.90;;
19519;SDS011;9904;52.246;20.898;2024-01-11T14:02:46;111.90;;;21.47;;
19519;SDS011;9904;52.246;20.898;2024-01-11T14:05:14;61.83;;;12.80;;
19519;SDS011;9904;52.246;20.898;2024-01-11T14:07:44;86.63;;;20.13;;
19519;SDS011;9904;52.246;20.898;2024-01-11T14:10:12;0.77;;;0.33;;
19519;SDS011;9904;52.246;20.898;2024-01-11T14:12:40;8.00;;;3.47;;
19519;SDS011;9904;52.246;20.898;2024-01-11T14:15:08;4.87;;;2.57;;
19519;SDS011;9904;52.246;20.898;2024-01-11T14:17:39;37.17;;;3.53;;
19519;SDS011;9904;52.246;20.898;2024-01-11T14:20:08;4.03;;;2.40;;